Time;durP1;ratioP1;P1;durP2;ratioP2;P2;SDS_P1;SDS_P2;PMS_P1;PMS_P2;Temp;Humidity;BMP_temperature;BMP_pressure;BME280_temperature;BME280_humidity;BME280_pressure;Samples;Min_cycle;Max_cycle;Signal;HPM_P1;HPM_P2
2022/11/02 00:00:22;;;;;;;3.35;1.10;;;13.40;99.90;;;;;;5013398;28;20046;-71
2022/11/02 00:02:47;;;;;;;4.18;1.20;;;13.50;99.90;;;;;;5013156;28;20057;-71
2022/11/02 00:05:14;;;;;;;3.05;1.42;;;13.40;99.90;;;;;;5013165;28;20402;-71
2022/11/02 00:07:40;;;;;;;3.95;1.10;;;13.40;99.90;;;;;;5013026;28;20046;-71
2022/11/02 00:10:07;;;;;;;3.45;1.00;;;13.30;99.90;;;;;;5023139;28;20052;-71
2022/11/02 00:12:33;;;;;;;2.00;0.95;;;13.20;99.90;;;;;;5032624;28;20497;-72
2022/11/02 00:14:59;;;;;;;2.75;1.00;;;13.00;99.90;;;;;;5020871;28;20136;-71
2022/11/02 00:17:25;;;;;;;5.00;1.00;;;12.80;99.90;;;;;;5012985;28;20050;-71
2022/11/02 00:19:51;;;;;;;4.57;1.10;;;12.70;99.90;;;;;;5011686;28;20046;-70
2022/11/02 00:22:17;;;;;;;3.20;1.10;;;12.60;99.90;;;;;;5012272;28;20053;-70
2022/11/02 00:24:42;;;;;;;4.80;1.20;;;12.50;99.90;;;;;;5012942;28;20038;-70
2022/11/02 00:27:08;;;;;;;3.88;1.40;;;12.50;99.90;;;;;;5012427;28;20046;-70
2022/11/02 00:29:34;;;;;;;4.63;1.10;;;12.50;99.90;;;;;;5012555;28;20046;-71
2022/11/02 00:32:00;;;;;;;4.22;1.08;;;12.50;99.90;;;;;;5013083;28;20053;-70
2022/11/02 00:34:26;;;;;;;3.00;1.00;;;12.40;99.90;;;;;;5012781;28;20057;-71
2022/11/02 00:36:53;;;;;;;3.72;1.10;;;12.40;99.90;;;;;;4995155;28;20057;-70
2022/11/02 00:39:18;;;;;;;3.67;1.20;;;12.40;99.90;;;;;;4994974;28;20050;-70
2022/11/02 00:41:44;;;;;;;3.38;1.10;;;12.40;99.90;;;;;;5012463;28;20045;-70
2022/11/02 00:44:10;;;;;;;6.45;1.30;;;12.40;99.90;;;;;;5012355;28;20514;-71
2022/11/02 00:46:35;;;;;;;3.80;1.23;;;12.50;99.90;;;;;;5012308;28;20139;-70
2022/11/02 00:49:01;;;;;;;5.65;1.20;;;12.50;99.90;;;;;;5012368;28;20053;-70
2022/11/02 00:51:27;;;;;;;4.68;1.20;;;12.50;99.90;;;;;;5012184;28;20218;-70
2022/11/02 00:53:53;;;;;;;6.55;1.17;;;12.60;99.90;;;;;;4994930;28;20139;-70
2022/11/02 00:56:18;;;;;;;7.55;1.30;;;12.60;99.90;;;;;;5012278;28;20057;-70
2022/11/02 00:58:44;;;;;;;5.53;1.52;;;12.60;99.90;;;;;;5012240;28;20092;-70
2022/11/02 01:01:10;;;;;;;5.38;1.23;;;12.80;99.90;;;;;;5012271;28;20410;-71
2022/11/02 01:03:35;;;;;;;4.28;1.25;;;12.70;99.90;;;;;;5012261;28;20513;-71
2022/11/02 01:06:12;;;;;;;6.22;1.45;;;12.70;99.90;;;;;;5012136;28;20123;-70
2022/11/02 01:08:39;;;;;;;4.53;1.45;;;12.70;99.90;;;;;;4994590;28;20057;-70
2022/11/02 01:11:16;;;;;;;2.53;0.90;;;12.60;99.90;;;;;;5029812;28;20089;-70
2022/11/02 01:13:43;;;;;;;3.13;1.25;;;12.60;99.90;;;;;;5030025;28;20041;-70
2022/11/02 01:16:09;;;;;;;6.30;1.52;;;12.60;99.90;;;;;;5011784;28;20054;-70
2022/11/02 01:18:35;;;;;;;5.32;1.60;;;12.60;99.90;;;;;;4994285;28;20048;-71
2022/11/02 01:21:01;;;;;;;3.00;1.20;;;12.60;99.90;;;;;;5011217;28;20045;-70
2022/11/02 01:23:26;;;;;;;4.75;1.27;;;12.70;99.90;;;;;;5012148;28;20470;-70
2022/11/02 01:25:52;;;;;;;3.95;1.52;;;12.70;99.90;;;;;;5011819;28;20050;-70
2022/11/02 01:28:18;;;;;;;4.57;1.58;;;12.70;99.90;;;;;;5011552;28;20049;-72
2022/11/02 01:30:47;;;;;;;5.03;1.42;;;12.80;99.90;;;;;;5011726;28;20099;-71
2022/11/02 01:33:12;;;;;;;4.45;1.30;;;12.90;99.90;;;;;;5011285;28;20058;-70
2022/11/02 01:35:38;;;;;;;4.78;1.52;;;12.90;99.90;;;;;;5011307;28;20430;-71
2022/11/02 01:38:04;;;;;;;5.28;1.45;;;12.90;99.90;;;;;;5011599;28;20122;-71
2022/11/02 01:40:38;;;;;;;6.80;1.30;;;13.00;99.90;;;;;;4994125;28;20310;-71
2022/11/02 01:43:25;;;;;;;3.45;1.10;;;13.00;99.90;;;;;;5009366;28;20088;-71
2022/11/02 01:45:57;;;;;;;4.45;1.17;;;13.10;99.90;;;;;;5011666;28;20087;-71
2022/11/02 01:48:33;;;;;;;4.28;1.10;;;13.10;99.90;;;;;;5011402;28;20507;-70
2022/11/02 01:51:04;;;;;;;5.22;1.30;;;13.10;99.90;;;;;;5010993;28;20038;-71
2022/11/02 01:53:32;;;;;;;3.67;1.20;;;13.10;99.90;;;;;;5011255;28;20562;-71
2022/11/02 01:55:59;;;;;;;4.68;1.40;;;13.10;99.90;;;;;;5011501;28;20105;-71
2022/11/02 01:58:26;;;;;;;3.90;1.58;;;13.20;99.90;;;;;;5011388;28;20132;-72
2022/11/02 02:00:53;;;;;;;4.07;1.42;;;13.20;99.90;;;;;;5011345;28;20046;-71
2022/11/02 02:03:20;;;;;;;3.60;1.00;;;13.20;99.90;;;;;;5010969;28;20049;-70
2022/11/02 02:05:55;;;;;;;6.28;2.15;;;13.20;99.90;;;;;;5011116;28;20544;-70
2022/11/02 02:08:23;;;;;;;4.47;1.40;;;13.20;99.90;;;;;;5011390;28;20058;-71
2022/11/02 02:10:50;;;;;;;4.05;1.17;;;13.20;99.90;;;;;;5027184;28;20049;-71
2022/11/02 02:13:17;;;;;;;5.43;1.33;;;13.10;99.90;;;;;;5030643;28;20383;-70
2022/11/02 02:15:45;;;;;;;4.15;1.50;;;13.10;99.90;;;;;;4995811;28;20046;-71
2022/11/02 02:18:46;;;;;;;6.30;1.45;;;13.10;99.90;;;;;;5010931;28;20045;-71
2022/11/02 02:21:11;;;;;;;4.65;1.27;;;13.10;99.90;;;;;;5011037;28;20053;-70
2022/11/02 02:23:56;;;;;;;3.85;1.17;;;13.10;99.90;;;;;;4993542;28;20057;-71
2022/11/02 02:26:24;;;;;;;4.43;1.15;;;13.10;99.90;;;;;;5011251;28;20088;-71
2022/11/02 02:29:01;;;;;;;5.20;1.52;;;13.00;99.90;;;;;;5011030;28;20088;-71
2022/11/02 02:31:38;;;;;;;4.63;1.40;;;13.00;99.90;;;;;;4977424;28;20075;-71
2022/11/02 02:34:22;;;;;;;5.80;1.55;;;12.90;99.90;;;;;;4993317;28;20469;-71
2022/11/02 02:36:59;;;;;;;4.68;1.58;;;12.90;99.90;;;;;;5011136;28;20073;-71
2022/11/02 02:39:38;;;;;;;6.05;1.27;;;12.80;99.90;;;;;;5010595;28;20598;-71
2022/11/02 02:42:27;;;;;;;6.18;2.22;;;12.50;99.90;;;;;;4993741;28;20057;-71
2022/11/02 02:45:16;;;;;;;6.10;1.77;;;12.30;99.90;;;;;;5013790;28;20107;-70
2022/11/02 02:47:48;;;;;;;2.00;0.90;;;12.00;99.90;;;;;;5014924;28;20096;-69
2022/11/02 02:50:20;;;;;;;2.67;1.10;;;11.70;99.90;;;;;;5014062;28;20049;-69
2022/11/02 02:52:48;;;;;;;2.78;1.00;;;11.40;99.90;;;;;;5014782;28;20403;-68
2022/11/02 02:55:21;;;;;;;3.70;1.35;;;11.20;99.90;;;;;;4997238;28;20140;-69
2022/11/02 02:57:49;;;;;;;4.07;1.30;;;11.10;99.90;;;;;;5014476;28;20053;-69
2022/11/02 03:00:17;;;;;;;3.55;1.48;;;11.20;99.90;;;;;;5014831;28;20134;-69
2022/11/02 03:02:59;;;;;;;4.18;1.88;;;11.20;99.90;;;;;;5014372;28;20125;-68
2022/11/02 03:05:34;;;;;;;4.50;1.48;;;11.30;99.90;;;;;;5014387;28;20502;-69
2022/11/02 03:08:04;;;;;;;8.40;1.73;;;11.40;99.90;;;;;;5014040;28;20056;-69
2022/11/02 03:10:41;;;;;;;4.10;1.27;;;11.40;99.90;;;;;;4992970;28;20569;-69
2022/11/02 03:13:18;;;;;;;2.58;1.10;;;11.50;99.90;;;;;;4993851;28;20503;-69
2022/11/02 03:16:03;;;;;;;;;;;11.60;99.90;;;;;;5030776;28;20049;-69
2022/11/02 03:18:35;;;;;;;2.70;1.00;;;11.80;99.90;;;;;;5015994;28;19971;-69
2022/11/02 03:21:00;;;;;;;3.10;0.80;;;11.80;99.90;;;;;;5033526;28;20096;-69
2022/11/02 03:23:36;;;;;;;3.25;1.05;;;11.70;99.90;;;;;;5033797;28;20088;-69
2022/11/02 03:26:17;;;;;;;1.60;0.60;;;11.70;99.90;;;;;;5033709;28;20041;-69
2022/11/02 03:28:57;;;;;;;2.22;0.85;;;11.60;99.90;;;;;;5015850;28;20053;-70
2022/11/02 03:31:44;;;;;;;4.25;1.23;;;11.60;99.90;;;;;;5033703;28;20057;-70
2022/11/02 03:34:38;;;;;;;2.03;0.75;;;11.60;99.90;;;;;;5015891;28;20041;-70
2022/11/02 03:37:16;;;;;;;2.70;0.70;;;11.50;99.90;;;;;;5033665;28;20045;-70
2022/11/02 03:39:47;;;;;;;2.58;0.77;;;11.40;99.90;;;;;;5033535;28;20394;-70
2022/11/02 03:42:19;;;;;;;4.07;1.27;;;11.30;99.90;;;;;;5033385;28;20049;-70
2022/11/02 03:44:50;;;;;;;3.85;0.77;;;11.30;99.90;;;;;;5015413;28;20049;-70
2022/11/02 03:47:19;;;;;;;2.25;1.05;;;11.30;99.90;;;;;;5015623;28;20053;-70
2022/11/02 03:49:47;;;;;;;1.80;0.55;;;11.20;99.90;;;;;;5033329;28;20053;-70
2022/11/02 03:52:20;;;;;;;1.80;0.60;;;11.10;99.90;;;;;;5033249;28;20049;-70
2022/11/02 03:55:03;;;;;;;2.13;0.60;;;11.20;99.90;;;;;;5032871;28;20050;-70
2022/11/02 03:57:48;;;;;;;2.88;0.85;;;11.10;99.90;;;;;;5033187;28;20132;-71
2022/11/02 04:00:17;;;;;;;2.15;1.00;;;11.00;99.90;;;;;;5033131;28;20053;-70
2022/11/02 04:02:48;;;;;;;2.30;0.70;;;11.00;99.90;;;;;;5033044;28;20080;-70
2022/11/02 04:05:14;;;;;;;2.42;0.75;;;11.00;99.90;;;;;;5033095;28;20055;-70
2022/11/02 04:10:28;;;;;;;2.45;0.73;;;11.00;99.90;;;;;;5026211;28;20088;-70
2022/11/02 04:15:38;;;;;;;3.45;0.80;;;11.00;99.90;;;;;;5015933;28;20062;-70
2022/11/02 04:20:51;;;;;;;2.10;0.80;;;11.00;99.90;;;;;;5011601;28;20060;-70
2022/11/02 04:26:02;;;;;;;2.58;1.10;;;11.30;99.90;;;;;;5012740;28;20054;-70
2022/11/02 04:28:28;;;;;;;3.55;0.80;;;11.00;99.90;;;;;;5012798;28;20108;-70
2022/11/02 04:30:54;;;;;;;2.47;1.25;;;11.10;99.90;;;;;;5012733;28;20045;-71
2022/11/02 04:33:31;;;;;;;3.75;1.10;;;11.10;99.90;;;;;;5012542;28;20062;-71
2022/11/02 04:36:05;;;;;;;3.05;1.08;;;11.20;99.90;;;;;;5012760;28;20479;-71
2022/11/02 04:38:41;;;;;;;3.22;1.10;;;11.20;99.90;;;;;;5012812;28;20042;-71
2022/11/02 04:43:53;;;;;;;2.53;0.88;;;11.20;99.90;;;;;;5012508;28;20062;-71
2022/11/02 04:46:20;;;;;;;4.45;1.05;;;11.20;99.90;;;;;;5012536;28;20054;-71
2022/11/02 04:48:46;;;;;;;3.30;1.02;;;11.30;99.90;;;;;;5012594;28;20107;-71
2022/11/02 04:51:13;;;;;;;3.33;1.20;;;11.20;99.90;;;;;;5011748;28;20049;-71
2022/11/02 04:53:38;;;;;;;7.47;1.30;;;11.30;99.90;;;;;;5011206;28;20081;-72
2022/11/02 04:56:05;;;;;;;3.65;1.20;;;11.30;99.90;;;;;;5012360;28;20088;-71
2022/11/02 04:58:30;;;;;;;3.65;1.00;;;11.40;99.90;;;;;;4994596;28;20100;-71
2022/11/02 05:00:56;;;;;;;3.15;1.00;;;11.50;99.90;;;;;;4994693;28;20050;-71
2022/11/02 05:03:21;;;;;;;5.13;1.33;;;11.50;99.90;;;;;;5012138;28;20045;-72
2022/11/02 05:05:47;;;;;;;3.90;0.85;;;11.50;99.90;;;;;;5012014;28;20050;-71
2022/11/02 05:08:14;;;;;;;2.85;0.88;;;11.50;99.90;;;;;;4994194;28;20129;-71
2022/11/02 05:10:39;;;;;;;5.03;1.13;;;11.50;99.90;;;;;;5009352;28;20049;-71
2022/11/02 05:13:05;;;;;;;3.17;0.93;;;11.50;99.90;;;;;;5031721;28;20045;-72
2022/11/02 05:15:31;;;;;;;3.47;0.95;;;11.50;99.90;;;;;;5015149;28;20054;-72
2022/11/02 05:17:56;;;;;;;6.10;1.50;;;11.50;99.90;;;;;;5011744;28;20042;-71
2022/11/02 05:20:22;;;;;;;4.65;1.10;;;11.50;99.90;;;;;;5010183;28;20100;-71
2022/11/02 05:22:47;;;;;;;2.72;1.10;;;11.50;99.90;;;;;;5011570;28;20129;-71
2022/11/02 05:25:14;;;;;;;4.28;1.20;;;11.50;99.90;;;;;;5011935;28;20064;-71
2022/11/02 05:27:40;;;;;;;4.75;1.67;;;11.50;99.90;;;;;;4994033;28;20046;-73
2022/11/02 05:30:06;;;;;;;4.40;1.30;;;11.50;99.90;;;;;;5011775;28;20380;-72
2022/11/02 05:32:31;;;;;;;3.83;1.15;;;11.50;99.90;;;;;;5011818;28;20495;-71
2022/11/02 05:34:57;;;;;;;5.82;1.13;;;11.50;99.90;;;;;;5011781;28;20044;-72
2022/11/02 05:37:23;;;;;;;5.57;1.60;;;11.50;99.90;;;;;;5012086;28;20053;-72
2022/11/02 05:39:48;;;;;;;3.47;0.88;;;11.40;99.90;;;;;;4992046;28;20038;-71
2022/11/02 05:42:14;;;;;;;5.50;1.40;;;11.50;99.90;;;;;;5019786;28;20127;-72
2022/11/02 05:44:40;;;;;;;4.97;1.30;;;11.50;99.90;;;;;;5024556;28;20068;-71
2022/11/02 05:47:05;;;;;;;2.92;1.02;;;11.40;99.90;;;;;;5031176;28;20061;-71
2022/11/02 05:49:31;;;;;;;4.25;1.50;;;11.30;99.90;;;;;;5013091;28;20054;-72
2022/11/02 05:51:57;;;;;;;5.35;1.45;;;11.20;99.90;;;;;;5011039;28;20096;-71
2022/11/02 05:54:23;;;;;;;3.83;1.50;;;11.20;99.90;;;;;;5011553;28;20384;-71
2022/11/02 05:56:48;;;;;;;7.20;1.30;;;11.10;99.90;;;;;;5018932;28;20534;-71
2022/11/02 05:59:14;;;;;;;3.85;1.30;;;10.90;99.90;;;;;;5031041;28;20099;-70
2022/11/02 06:01:40;;;;;;;3.80;1.27;;;10.80;99.90;;;;;;5031264;28;20250;-71
2022/11/02 06:04:05;;;;;;;3.83;1.35;;;10.70;99.90;;;;;;5031423;28;20085;-71
2022/11/02 06:06:31;;;;;;;4.45;1.23;;;10.60;99.90;;;;;;5031029;28;20099;-71
2022/11/02 06:08:57;;;;;;;9.05;1.83;;;10.60;99.90;;;;;;5031130;28;20053;-71
2022/11/02 06:11:22;;;;;;;7.05;1.55;;;10.60;99.90;;;;;;5013413;28;20053;-71
2022/11/02 06:13:49;;;;;;;5.65;1.75;;;10.60;99.90;;;;;;5025896;28;20081;-71
2022/11/02 06:16:16;;;;;;;5.32;1.42;;;10.70;99.90;;;;;;5030928;28;20049;-71
2022/11/02 06:18:42;;;;;;;5.78;1.42;;;10.70;99.90;;;;;;5033741;28;20081;-71
2022/11/02 06:21:08;;;;;;;4.65;1.35;;;10.60;99.90;;;;;;5033850;28;20092;-71
2022/11/02 06:23:34;;;;;;;6.97;1.92;;;10.50;99.90;;;;;;5034952;28;20049;-71
2022/11/02 06:26:01;;;;;;;2.60;1.27;;;10.50;99.90;;;;;;5034724;28;20045;-71
2022/11/02 06:28:28;;;;;;;6.63;1.40;;;10.50;99.90;;;;;;5034731;28;20049;-71
2022/11/02 06:30:54;;;;;;;6.65;1.88;;;10.60;99.90;;;;;;5034837;28;20132;-71
2022/11/02 06:33:20;;;;;;;5.13;1.38;;;10.60;99.90;;;;;;5034642;28;20151;-71
2022/11/02 06:35:48;;;;;;;6.50;1.73;;;10.70;99.90;;;;;;5034471;28;20133;-71
2022/11/02 06:38:14;;;;;;;5.18;1.40;;;10.70;99.90;;;;;;5034568;28;20466;-71
2022/11/02 06:40:40;;;;;;;5.15;1.95;;;10.70;99.90;;;;;;5034512;28;20050;-71
2022/11/02 06:43:06;;;;;;;4.00;1.40;;;10.80;99.90;;;;;;5033941;28;20395;-75
2022/11/02 06:45:31;;;;;;;3.90;1.30;;;10.70;99.90;;;;;;5034604;28;20097;-71
2022/11/02 06:47:57;;;;;;;4.47;1.58;;;10.70;99.90;;;;;;5005907;28;20127;-71
2022/11/02 06:50:23;;;;;;;5.53;1.50;;;10.60;99.90;;;;;;5009632;28;20054;-71
2022/11/02 06:52:50;;;;;;;6.50;1.75;;;10.60;99.90;;;;;;4995180;28;20050;-71
2022/11/02 06:55:17;;;;;;;6.07;1.73;;;10.60;99.90;;;;;;4995147;28;20046;-72
2022/11/02 06:57:43;;;;;;;6.68;1.48;;;10.60;99.90;;;;;;4994899;28;20049;-71
2022/11/02 07:00:12;;;;;;;5.05;1.52;;;10.60;99.90;;;;;;4994552;28;20097;-64
2022/11/02 07:02:41;;;;;;;4.18;1.35;;;10.60;99.90;;;;;;4993939;28;20054;-65
2022/11/02 07:05:07;;;;;;;8.27;2.05;;;10.60;99.90;;;;;;4998185;28;20038;-64
2022/11/02 07:07:32;;;;;;;6.63;1.52;;;10.60;99.90;;;;;;5014174;28;20049;-64
2022/11/02 07:09:58;;;;;;;9.13;2.65;;;10.60;99.90;;;;;;5014143;28;20054;-64
2022/11/02 07:12:24;;;;;;;6.45;1.40;;;10.50;99.90;;;;;;5014454;28;20406;-65
2022/11/02 07:14:50;;;;;;;6.68;1.42;;;10.50;99.90;;;;;;5014063;28;20505;-64
2022/11/02 07:17:15;;;;;;;7.05;1.98;;;10.60;99.90;;;;;;5013730;28;20042;-65
2022/11/02 07:19:41;;;;;;;5.50;1.83;;;10.60;99.90;;;;;;5014002;28;20410;-64
2022/11/02 07:22:07;;;;;;;6.85;1.73;;;10.60;99.90;;;;;;5013776;28;20478;-65
2022/11/02 07:24:32;;;;;;;7.10;2.10;;;10.70;99.90;;;;;;5013825;28;20423;-65
2022/11/02 07:26:58;;;;;;;6.50;1.85;;;10.70;99.90;;;;;;4996707;28;20483;-65
2022/11/02 07:29:24;;;;;;;9.35;3.35;;;10.70;99.90;;;;;;5013100;28;20569;-65
2022/11/02 07:31:49;;;;;;;7.70;1.88;;;10.80;99.90;;;;;;5013920;28;20096;-64
2022/11/02 07:34:15;;;;;;;5.35;1.40;;;10.80;99.90;;;;;;5013716;28;20133;-64
2022/11/02 07:36:41;;;;;;;5.35;1.98;;;10.90;99.90;;;;;;5011857;28;20471;-65
2022/11/02 07:39:06;;;;;;;4.57;1.40;;;11.00;99.90;;;;;;5012962;28;20046;-65
2022/11/02 07:41:33;;;;;;;4.32;1.33;;;11.00;99.90;;;;;;5013442;28;20333;-65
2022/11/02 07:43:59;;;;;;;7.60;1.48;;;10.90;99.90;;;;;;4995203;28;20134;-64
2022/11/02 07:46:25;;;;;;;6.57;1.58;;;10.90;99.90;;;;;;5011897;28;20184;-64
2022/11/02 07:48:51;;;;;;;4.57;1.50;;;10.90;99.90;;;;;;5028008;28;20064;-64
2022/11/02 07:51:17;;;;;;;6.03;1.98;;;10.90;99.90;;;;;;5032960;28;20438;-64
2022/11/02 07:53:42;;;;;;;3.28;1.75;;;10.90;99.90;;;;;;5033252;28;20128;-64
2022/11/02 07:56:08;;;;;;;4.32;1.60;;;10.80;99.90;;;;;;5033418;28;20045;-64
2022/11/02 07:58:34;;;;;;;5.88;1.50;;;10.80;99.90;;;;;;5033099;28;20513;-64
2022/11/02 08:01:00;;;;;;;3.42;1.27;;;10.80;99.90;;;;;;5033150;28;20393;-64
2022/11/02 08:03:27;;;;;;;4.75;1.45;;;10.90;99.90;;;;;;5033193;28;20049;-64
2022/11/02 08:05:53;;;;;;;4.35;1.45;;;10.90;99.90;;;;;;5033159;28;20056;-64
2022/11/02 08:08:20;;;;;;;6.20;1.40;;;11.00;99.90;;;;;;5033128;28;20474;-64
2022/11/02 08:10:48;;;;;;;5.53;1.98;;;10.90;99.90;;;;;;5033035;28;20414;-64
2022/11/02 08:13:16;;;;;;;5.68;1.45;;;11.00;99.90;;;;;;5032850;28;20133;-64
2022/11/02 08:15:42;;;;;;;4.25;1.25;;;11.00;99.90;;;;;;4997797;28;20441;-63
2022/11/02 08:18:16;;;;;;;4.50;2.00;;;11.10;99.90;;;;;;5013051;28;20046;-63
2022/11/02 08:20:42;;;;;;;5.30;1.30;;;11.00;99.90;;;;;;5012612;28;20049;-64
2022/11/02 08:23:09;;;;;;;5.25;1.35;;;11.00;99.90;;;;;;5013293;28;20525;-63
2022/11/02 08:25:36;;;;;;;3.65;1.30;;;11.00;99.90;;;;;;5012925;28;20049;-64
2022/11/02 08:28:02;;;;;;;4.80;1.10;;;11.00;99.90;;;;;;5012815;28;20140;-64
2022/11/02 08:30:30;;;;;;;4.25;1.50;;;11.10;99.90;;;;;;5012850;28;20064;-64
2022/11/02 08:33:02;;;;;;;6.32;1.40;;;11.10;99.90;;;;;;5012620;28;20049;-64
2022/11/02 08:35:28;;;;;;;4.28;1.33;;;11.10;99.90;;;;;;5012719;28;20161;-64
2022/11/02 08:37:54;;;;;;;4.90;1.40;;;11.20;99.90;;;;;;5012472;28;20054;-65
2022/11/02 08:40:20;;;;;;;4.35;1.30;;;11.20;99.90;;;;;;5012534;28;20410;-65
2022/11/02 08:42:46;;;;;;;5.95;1.13;;;11.30;99.90;;;;;;5011527;28;20053;-65
2022/11/02 08:45:12;;;;;;;4.70;1.48;;;11.30;99.90;;;;;;4995060;28;20053;-63
2022/11/02 08:47:41;;;;;;;5.28;1.50;;;11.30;99.90;;;;;;5012364;28;20042;-63
2022/11/02 08:50:08;;;;;;;3.33;1.20;;;11.40;99.90;;;;;;5012059;28;20149;-64
2022/11/02 08:52:35;;;;;;;6.97;1.10;;;11.60;99.90;;;;;;5008222;28;20046;-64
2022/11/02 08:55:01;;;;;;;4.80;1.13;;;11.60;99.90;;;;;;5011220;28;20490;-63
2022/11/02 08:57:26;;;;;;;5.05;1.20;;;11.60;99.90;;;;;;5011816;28;20038;-65
2022/11/02 08:59:52;;;;;;;3.60;1.20;;;11.70;99.90;;;;;;5011843;28;20061;-64
2022/11/02 09:02:24;;;;;;;3.20;0.85;;;11.80;99.90;;;;;;5143274;27;1401355;-63
2022/11/02 09:04:49;;;;;;;3.13;0.95;;;11.90;99.90;;;;;;5170372;27;20150;-65
2022/11/02 09:07:15;;;;;;;4.15;1.10;;;11.90;99.90;;;;;;5165726;27;20125;-65
2022/11/02 09:09:41;;;;;;;5.93;1.48;;;12.00;99.90;;;;;;5163171;27;20171;-65
2022/11/02 09:12:06;;;;;;;6.25;1.20;;;12.10;99.90;;;;;;5165314;27;20234;-64
2022/11/02 09:14:32;;;;;;;7.35;1.20;;;12.10;99.90;;;;;;5167911;27;20157;-65
2022/11/02 09:16:58;;;;;;;7.63;1.60;;;12.10;99.90;;;;;;5169699;27;20050;-65
2022/11/02 09:19:23;;;;;;;3.53;1.02;;;12.00;99.90;;;;;;5150850;27;20050;-65
2022/11/02 09:21:50;;;;;;;3.85;1.10;;;11.90;99.90;;;;;;5168537;27;20066;-66
2022/11/02 09:24:15;;;;;;;4.15;1.27;;;11.90;99.90;;;;;;5170025;27;20054;-65
2022/11/02 09:26:41;;;;;;;3.90;0.85;;;12.00;99.90;;;;;;5169931;27;20539;-64
2022/11/02 09:29:07;;;;;;;3.50;1.13;;;12.00;99.90;;;;;;5170311;27;20052;-67
2022/11/02 09:31:32;;;;;;;3.63;1.00;;;12.10;99.90;;;;;;5170081;27;20045;-64
2022/11/02 09:33:58;;;;;;;3.40;0.85;;;12.10;99.90;;;;;;5169534;27;20473;-65
2022/11/02 09:36:24;;;;;;;3.63;1.23;;;12.10;99.90;;;;;;5170305;27;20093;-66
2022/11/02 09:38:49;;;;;;;2.45;0.80;;;12.30;99.90;;;;;;5133870;27;20408;-65
2022/11/02 09:41:48;;;;;;;4.45;1.35;;;12.40;99.90;;;;;;5170233;27;20046;-65
2022/11/02 09:44:41;;;;;;;6.03;1.05;;;12.80;99.90;;;;;;5148870;27;20414;-65
2022/11/02 09:47:09;;;;;;;2.65;0.80;;;12.70;99.90;;;;;;5170459;27;20093;-65
2022/11/02 09:49:35;;;;;;;4.38;1.00;;;12.80;99.90;;;;;;5169991;27;20085;-65
2022/11/02 09:52:01;;;;;;;4.20;0.98;;;12.70;99.90;;;;;;5168995;27;20088;-65
2022/11/02 09:54:39;;;;;;;3.42;0.80;;;12.70;99.90;;;;;;5151267;27;20061;-65
2022/11/02 09:57:10;;;;;;;4.70;1.10;;;12.70;99.90;;;;;;5151596;27;20050;-65
2022/11/02 09:59:36;;;;;;;2.97;1.13;;;12.50;99.90;;;;;;5169560;27;20091;-65
2022/11/02 10:02:10;;;;;;;2.50;0.73;;;12.30;99.90;;;;;;5169605;27;20054;-64
2022/11/02 10:05:07;;;;;;;3.63;1.00;;;12.80;99.90;;;;;;5169435;27;20073;-65
2022/11/02 10:07:54;;;;;;;4.43;1.15;;;12.20;99.90;;;;;;5169394;27;20058;-64
2022/11/02 10:10:45;;;;;;;2.78;0.90;;;12.20;99.90;;;;;;5169110;27;20182;-65
2022/11/02 10:13:25;;;;;;;3.53;0.85;;;12.40;99.90;;;;;;5159100;27;20038;-65
2022/11/02 10:16:05;;;;;;;3.53;0.98;;;12.50;99.90;;;;;;5136552;27;20049;-64
2022/11/02 10:18:34;;;;;;;7.40;1.23;;;12.70;99.90;;;;;;5155249;27;20146;-64
2022/11/02 10:21:14;;;;;;;4.28;1.10;;;12.90;99.90;;;;;;5155024;27;20066;-65
2022/11/02 10:23:52;;;;;;;3.97;0.98;;;12.90;99.90;;;;;;5155112;27;20047;-65
2022/11/02 10:26:32;;;;;;;4.00;1.00;;;12.90;99.90;;;;;;5154932;27;20050;-65
2022/11/02 10:28:59;;;;;;;2.80;1.23;;;12.80;99.90;;;;;;5154722;27;20058;-64
2022/11/02 10:31:31;;;;;;;5.07;1.27;;;12.90;99.90;;;;;;5155453;27;20049;-65
2022/11/02 10:34:11;;;;;;;3.70;1.13;;;12.80;99.90;;;;;;5155403;27;20044;-65
2022/11/02 10:37:03;;;;;;;2.58;0.90;;;12.60;99.90;;;;;;5136070;27;20046;-64
2022/11/02 10:39:38;;;;;;;3.72;0.90;;;12.50;99.90;;;;;;5153782;27;20061;-64
2022/11/02 10:42:25;;;;;;;3.47;0.82;;;12.40;99.90;;;;;;5155074;27;20043;-64
2022/11/02 10:44:57;;;;;;;3.20;0.85;;;12.30;99.90;;;;;;5154482;27;20513;-70
2022/11/02 10:47:55;;;;;;;3.58;0.90;;;12.20;99.90;;;;;;5153689;27;20046;-71
2022/11/02 10:50:42;;;;;;;4.82;0.80;;;12.20;99.90;;;;;;5120104;27;20150;-72
2022/11/02 10:53:13;;;;;;;6.13;1.17;;;12.50;99.90;;;;;;5151443;27;20050;-71
2022/11/02 10:55:44;;;;;;;5.50;1.13;;;12.60;99.90;;;;;;5135493;27;20051;-71
2022/11/02 10:58:16;;;;;;;3.42;0.80;;;12.60;99.90;;;;;;5151552;27;20457;-72
2022/11/02 11:00:43;;;;;;;3.53;1.17;;;12.90;99.90;;;;;;5154400;27;20175;-71
2022/11/02 11:03:16;;;;;;;2.80;1.15;;;13.30;99.90;;;;;;5154971;27;20043;-73
2022/11/02 11:06:03;;;;;;;3.30;0.88;;;13.30;99.90;;;;;;5153920;27;20054;-74
2022/11/02 11:08:40;;;;;;;3.58;1.00;;;13.50;99.90;;;;;;5154631;27;20053;-72
2022/11/02 11:11:30;;;;;;;3.13;1.05;;;13.30;99.90;;;;;;5154709;27;20035;-72
2022/11/02 11:14:07;;;;;;;3.17;0.93;;;13.20;99.90;;;;;;5143129;27;20104;-73
2022/11/02 11:16:42;;;;;;;3.88;1.00;;;13.10;99.90;;;;;;5154182;27;20042;-72
2022/11/02 11:19:27;;;;;;;2.63;0.70;;;12.90;99.90;;;;;;5154013;27;20451;-71
2022/11/02 11:21:52;;;;;;;3.25;0.90;;;12.80;99.90;;;;;;5153699;27;20046;-71
2022/11/02 11:24:32;;;;;;;4.05;0.95;;;12.80;99.90;;;;;;5152974;27;20391;-70
2022/11/02 11:27:04;;;;;;;2.08;1.00;;;12.70;99.90;;;;;;5135278;27;20047;-72
2022/11/02 11:29:33;;;;;;;5.50;1.10;;;12.70;99.90;;;;;;5153613;27;20078;-72
2022/11/02 11:32:01;;;;;;;3.67;0.90;;;12.60;99.90;;;;;;5153983;27;20047;-71
2022/11/02 11:34:30;;;;;;;4.57;0.93;;;12.60;99.90;;;;;;5149148;27;20117;-77
2022/11/02 11:37:10;;;;;;;3.30;1.00;;;12.60;99.90;;;;;;5097327;27;20078;-73
2022/11/02 11:39:39;;;;;;;4.50;1.17;;;12.60;99.90;;;;;;5147770;27;20042;-71
2022/11/02 11:42:14;;;;;;;3.00;1.17;;;12.60;99.90;;;;;;5144874;27;20119;-71
2022/11/02 11:44:58;;;;;;;3.63;0.90;;;12.70;99.90;;;;;;5150287;27;20046;-73
2022/11/02 11:47:29;;;;;;;4.60;0.80;;;12.80;99.90;;;;;;5140325;27;20051;-72
2022/11/02 11:49:58;;;;;;;3.90;0.90;;;12.80;99.90;;;;;;5138529;27;20042;-72
2022/11/02 11:52:27;;;;;;;4.65;1.00;;;12.90;99.90;;;;;;5131997;27;20035;-71
2022/11/02 11:54:57;;;;;;;2.38;0.90;;;13.00;99.90;;;;;;5113718;27;20099;-71
2022/11/02 11:57:30;;;;;;;3.15;1.00;;;13.20;99.90;;;;;;5111852;27;20075;-71
2022/11/02 11:59:58;;;;;;;4.20;1.10;;;13.20;99.90;;;;;;5139541;27;20049;-71
2022/11/02 12:02:29;;;;;;;3.25;1.00;;;13.20;99.90;;;;;;5131050;27;20094;-72
2022/11/02 12:05:16;;;;;;;4.65;0.95;;;13.20;99.90;;;;;;5131236;27;20122;-72
2022/11/02 12:07:56;;;;;;;4.40;1.05;;;13.50;99.90;;;;;;5149455;27;20526;-73
2022/11/02 12:10:45;;;;;;;5.57;1.33;;;13.50;99.90;;;;;;5150965;27;20054;-72
2022/11/02 12:13:41;;;;;;;3.72;0.90;;;13.60;99.90;;;;;;5152273;27;20049;-72
2022/11/02 12:16:16;;;;;;;4.32;0.80;;;13.70;99.90;;;;;;5144443;27;20476;-71
2022/11/02 12:19:00;;;;;;;3.33;1.02;;;13.90;99.90;;;;;;5150847;27;20394;-71
2022/11/02 12:21:48;;;;;;;4.25;0.70;;;14.00;99.90;;;;;;5151380;27;20031;-72
2022/11/02 12:24:27;;;;;;;4.03;1.17;;;13.90;99.90;;;;;;5149801;27;20462;-72
2022/11/02 12:27:04;;;;;;;2.25;0.80;;;13.80;99.90;;;;;;5152664;27;20121;-72
2022/11/02 12:29:59;;;;;;;3.70;0.77;;;13.70;99.90;;;;;;5151511;27;20051;-71
2022/11/02 12:32:48;;;;;;;5.55;1.45;;;13.70;99.90;;;;;;5151972;27;20402;-72
2022/11/02 12:35:42;;;;;;;3.15;0.80;;;13.80;99.90;;;;;;5150390;27;20078;-72
2022/11/02 12:38:19;;;;;;;4.22;0.90;;;13.80;99.90;;;;;;5149888;27;20440;-73
2022/11/02 12:41:21;;;;;;;2.40;0.90;;;13.80;99.90;;;;;;5152505;27;20126;-73
2022/11/02 12:43:49;;;;;;;3.75;0.90;;;13.80;99.90;;;;;;5152922;27;20054;-72
2022/11/02 12:46:38;;;;;;;3.13;0.80;;;13.60;99.90;;;;;;5152693;27;20130;-72
2022/11/02 12:49:06;;;;;;;2.65;0.95;;;13.40;99.90;;;;;;5153060;27;20089;-72
2022/11/02 12:51:53;;;;;;;3.00;0.80;;;13.50;99.90;;;;;;5152559;27;20035;-72
2022/11/02 12:54:34;;;;;;;4.07;0.73;;;13.50;99.90;;;;;;5152789;27;20491;-72
2022/11/02 12:57:00;;;;;;;6.72;1.00;;;13.70;99.90;;;;;;5152623;27;20510;-73
2022/11/02 12:59:32;;;;;;;2.35;0.90;;;13.70;99.90;;;;;;5152899;27;20125;-72
2022/11/02 13:02:11;;;;;;;3.83;1.13;;;13.80;99.90;;;;;;5133729;27;20094;-73
2022/11/02 13:05:10;;;;;;;3.53;0.80;;;13.90;99.90;;;;;;5117564;27;20458;-73
2022/11/02 13:07:45;;;;;;;2.85;0.98;;;14.00;99.90;;;;;;5152821;27;20051;-73
2022/11/02 13:10:22;;;;;;;3.50;0.80;;;13.90;99.90;;;;;;5152710;27;20097;-72
2022/11/02 13:12:52;;;;;;;4.70;1.23;;;13.80;99.90;;;;;;5152838;27;20093;-73
2022/11/02 13:15:23;;;;;;;4.90;1.00;;;13.80;99.90;;;;;;5152420;27;20089;-72
2022/11/02 13:17:56;;;;;;;4.05;1.23;;;13.60;99.90;;;;;;5152258;27;20459;-72
2022/11/02 13:20:38;;;;;;;4.05;0.95;;;13.40;99.90;;;;;;5152385;27;20465;-72